createdAt,value
2018-12-10T00:00:00.812Z,1.17
2018-12-10T00:02:29.525Z,1.37
2018-12-10T00:04:58.445Z,2.00
2018-12-10T00:07:27.566Z,1.17
2018-12-10T00:09:58.190Z,1.70
2018-12-10T00:12:27.711Z,1.37
2018-12-10T00:14:56.871Z,2.10
2018-12-10T00:17:25.795Z,2.70
2018-12-10T00:19:54.662Z,1.97
2018-12-10T00:22:23.518Z,1.77
2018-12-10T00:24:52.203Z,1.27
2018-12-10T00:27:20.904Z,1.37
2018-12-10T00:29:49.650Z,1.77
2018-12-10T00:32:18.260Z,1.20
2018-12-10T00:34:47.138Z,2.10
2018-12-10T00:37:15.901Z,1.97
2018-12-10T00:39:44.559Z,1.80
2018-12-10T00:42:13.287Z,1.40
2018-12-10T00:44:42.072Z,1.67
2018-12-10T00:47:10.713Z,1.30
2018-12-10T00:49:39.362Z,1.70
2018-12-10T00:52:07.991Z,1.87
2018-12-10T00:54:36.614Z,2.27
2018-12-10T00:57:05.287Z,1.30
2018-12-10T00:59:34.043Z,1.43
2018-12-10T01:02:02.711Z,1.80
2018-12-10T01:04:31.312Z,1.60
2018-12-10T01:06:59.878Z,1.53
2018-12-10T01:09:28.509Z,2.10
2018-12-10T01:11:57.151Z,1.40
2018-12-10T01:14:25.859Z,1.97
2018-12-10T01:16:55.023Z,1.83
2018-12-10T01:19:24.330Z,1.57
2018-12-10T01:21:53.287Z,1.23
2018-12-10T01:24:21.906Z,0.90
2018-12-10T01:26:50.629Z,1.20
2018-12-10T01:29:19.240Z,0.80
2018-12-10T01:31:47.803Z,1.00
2018-12-10T01:34:16.443Z,0.83
2018-12-10T01:36:45.011Z,0.90
2018-12-10T01:39:13.552Z,0.93
2018-12-10T01:41:43.317Z,1.53
2018-12-10T01:44:12.051Z,0.93
2018-12-10T01:46:40.646Z,1.30
2018-12-10T01:49:09.195Z,1.20
2018-12-10T01:51:37.697Z,1.40
2018-12-10T01:54:06.219Z,1.20
2018-12-10T01:56:34.754Z,2.20
2018-12-10T01:59:03.467Z,1.63
2018-12-10T02:01:32.026Z,1.93
2018-12-10T02:04:00.573Z,1.30
2018-12-10T02:06:29.109Z,1.70
2018-12-10T02:08:57.660Z,1.30
2018-12-10T02:11:26.410Z,1.27
2018-12-10T02:13:54.944Z,1.93
2018-12-10T02:16:23.627Z,1.80
2018-12-10T02:18:52.182Z,1.57
2018-12-10T02:21:21.186Z,1.70
2018-12-10T02:23:49.871Z,1.80
2018-12-10T02:26:18.438Z,2.10
2018-12-10T02:28:52.323Z,1.67
2018-12-10T02:31:20.985Z,1.97
2018-12-10T02:33:49.520Z,2.03
2018-12-10T02:36:18.112Z,1.77
2018-12-10T02:38:46.672Z,1.60
2018-12-10T02:41:15.259Z,1.37
2018-12-10T02:43:43.788Z,1.70
2018-12-10T02:46:12.336Z,2.30
2018-12-10T02:48:41.032Z,2.17
2018-12-10T02:51:09.550Z,1.30
2018-12-10T02:53:38.101Z,2.00
2018-12-10T02:56:06.680Z,1.73
2018-12-10T02:58:35.207Z,2.13
2018-12-10T03:01:03.835Z,1.90
2018-12-10T03:03:32.449Z,2.20
2018-12-10T03:06:01.113Z,3.30
2018-12-10T03:08:29.695Z,2.23
2018-12-10T03:10:58.334Z,2.43
2018-12-10T03:13:27.155Z,1.77
2018-12-10T03:15:55.734Z,1.63
2018-12-10T03:18:24.624Z,1.83
2018-12-10T03:20:53.365Z,1.73
2018-12-10T03:23:21.949Z,1.93
2018-12-10T03:25:50.635Z,2.17
2018-12-10T03:28:19.190Z,1.73
2018-12-10T03:30:48.014Z,1.70
2018-12-10T03:33:16.631Z,1.83
2018-12-10T03:35:45.313Z,2.10
2018-12-10T03:38:14.365Z,2.27
2018-12-10T03:40:42.928Z,2.13
2018-12-10T03:43:11.525Z,2.40
2018-12-10T03:45:40.461Z,1.90
2018-12-10T03:48:15.439Z,1.63
2018-12-10T03:50:43.983Z,2.10
2018-12-10T03:53:12.489Z,1.70
2018-12-10T03:55:41.280Z,1.77
2018-12-10T03:58:09.816Z,3.00
2018-12-10T04:00:38.354Z,1.97
2018-12-10T04:03:06.867Z,2.10
2018-12-10T04:05:35.444Z,2.00
2018-12-10T04:08:04.071Z,2.37
2018-12-10T04:10:32.926Z,1.83
2018-12-10T04:13:01.593Z,1.73
2018-12-10T04:15:30.931Z,1.57
2018-12-10T04:17:59.504Z,1.47
2018-12-10T04:20:28.047Z,1.93
2018-12-10T04:22:56.571Z,1.73
2018-12-10T04:25:25.102Z,1.53
2018-12-10T04:27:54.662Z,1.93
2018-12-10T04:30:23.336Z,2.53
2018-12-10T04:32:51.859Z,1.53
2018-12-10T04:35:20.384Z,1.57
2018-12-10T04:37:48.976Z,1.43
2018-12-10T04:40:17.553Z,1.60
2018-12-10T04:42:46.085Z,1.40
2018-12-10T04:45:14.661Z,1.57
2018-12-10T04:47:43.210Z,1.40
2018-12-10T04:50:11.816Z,1.33
2018-12-10T04:52:40.324Z,1.77
2018-12-10T04:55:08.896Z,1.40
2018-12-10T04:57:37.414Z,1.30
2018-12-10T05:00:08.372Z,1.30
2018-12-10T05:02:37.007Z,1.43
2018-12-10T05:05:05.919Z,1.20
2018-12-10T05:07:34.594Z,1.20
2018-12-10T05:10:03.279Z,1.20
2018-12-10T05:12:31.856Z,1.13
2018-12-10T05:15:00.412Z,1.50
2018-12-10T05:17:28.975Z,1.52
2018-12-10T05:19:57.535Z,1.23
2018-12-10T05:22:26.093Z,1.00
2018-12-10T05:24:54.682Z,1.00
2018-12-10T05:27:23.286Z,1.40
2018-12-10T05:29:51.879Z,1.20
2018-12-10T05:32:20.440Z,1.50
2018-12-10T05:34:48.971Z,1.00
2018-12-10T05:37:17.677Z,1.17
2018-12-10T05:39:46.309Z,1.10
2018-12-10T05:42:25.082Z,1.07
2018-12-10T05:44:53.660Z,1.00
2018-12-10T05:47:22.235Z,1.27
2018-12-10T05:49:50.760Z,1.65
2018-12-10T05:52:19.297Z,1.40
2018-12-10T05:54:47.900Z,1.27
2018-12-10T05:57:16.562Z,1.10
2018-12-10T05:59:45.207Z,2.00
2018-12-10T06:02:13.851Z,1.03
2018-12-10T06:04:42.414Z,1.70
2018-12-10T06:07:11.727Z,0.97
2018-12-10T06:09:40.387Z,1.13
2018-12-10T06:12:09.009Z,1.00
2018-12-10T06:14:37.563Z,1.40
2018-12-10T06:17:06.141Z,1.10
2018-12-10T06:19:34.691Z,1.10
2018-12-10T06:22:03.218Z,1.10
2018-12-10T06:24:31.780Z,1.40
2018-12-10T06:27:00.295Z,1.13
2018-12-10T06:29:28.867Z,1.00
2018-12-10T06:31:57.390Z,1.30
2018-12-10T06:34:26.307Z,1.20
2018-12-10T06:36:54.983Z,1.20
2018-12-10T06:39:23.512Z,1.43
2018-12-10T06:41:52.186Z,1.00
2018-12-10T06:44:20.783Z,1.20
2018-12-10T06:46:49.346Z,1.13
2018-12-10T06:49:17.946Z,1.43
2018-12-10T06:51:46.551Z,1.57
2018-12-10T06:54:15.160Z,1.50
2018-12-10T06:56:43.789Z,1.83
2018-12-10T06:59:12.332Z,2.10
2018-12-10T07:01:41.711Z,1.63
2018-12-10T07:04:16.764Z,1.93
2018-12-10T07:06:45.426Z,1.80
2018-12-10T07:09:13.985Z,1.73
2018-12-10T07:11:42.656Z,1.67
2018-12-10T07:14:11.264Z,1.60
2018-12-10T07:16:39.826Z,1.87
2018-12-10T07:19:08.359Z,1.87
2018-12-10T07:21:36.947Z,1.50
2018-12-10T07:24:05.554Z,1.77
2018-12-10T07:26:34.139Z,1.57
2018-12-10T07:29:02.713Z,1.10
2018-12-10T07:31:31.410Z,1.80
2018-12-10T07:34:00.074Z,1.40
2018-12-10T07:36:28.937Z,1.10
2018-12-10T07:38:57.809Z,1.87
2018-12-10T07:41:26.645Z,1.20
2018-12-10T07:43:55.370Z,1.30
2018-12-10T07:46:24.271Z,1.30
2018-12-10T07:48:53.121Z,1.20
2018-12-10T07:51:21.930Z,1.10
2018-12-10T07:53:50.923Z,1.83
2018-12-10T07:56:20.039Z,1.50
2018-12-10T07:58:48.731Z,1.50
2018-12-10T08:01:17.843Z,1.33
2018-12-10T08:03:46.556Z,1.40
2018-12-10T08:06:15.249Z,1.57
2018-12-10T08:08:44.000Z,1.67
2018-12-10T08:11:12.658Z,1.53
2018-12-10T08:13:41.342Z,1.60
2018-12-10T08:16:10.312Z,1.90
2018-12-10T08:18:39.015Z,1.70
2018-12-10T08:21:07.762Z,1.40
2018-12-10T08:23:36.568Z,1.60
2018-12-10T08:26:05.450Z,1.57
2018-12-10T08:28:34.107Z,1.70
2018-12-10T08:31:03.573Z,1.77
2018-12-10T08:33:32.578Z,2.17
2018-12-10T08:36:01.685Z,2.77
2018-12-10T08:38:30.647Z,1.80
2018-12-10T08:40:59.547Z,1.60
2018-12-10T08:43:28.345Z,1.63
2018-12-10T08:45:57.155Z,2.40
2018-12-10T08:48:26.208Z,1.90
2018-12-10T08:50:54.965Z,2.13
2018-12-10T08:53:24.040Z,2.13
2018-12-10T08:55:52.785Z,1.80
2018-12-10T08:58:21.664Z,2.07
2018-12-10T09:00:50.559Z,2.03
2018-12-10T09:03:19.261Z,2.50
2018-12-10T09:05:48.321Z,2.57
2018-12-10T09:08:17.358Z,2.10
2018-12-10T09:10:46.070Z,2.17
2018-12-10T09:13:14.704Z,2.70
2018-12-10T09:15:44.054Z,2.47
2018-12-10T09:18:12.778Z,2.27
2018-12-10T09:20:41.531Z,3.20
2018-12-10T09:23:10.508Z,2.50
2018-12-10T09:25:39.310Z,2.40
2018-12-10T09:28:08.217Z,2.37
2018-12-10T09:30:36.979Z,2.20
2018-12-10T09:33:05.611Z,2.40
2018-12-10T09:35:34.463Z,2.57
2018-12-10T09:38:03.153Z,2.40
2018-12-10T09:40:32.137Z,2.50
2018-12-10T09:43:01.088Z,2.67
2018-12-10T09:45:30.083Z,2.50
2018-12-10T09:47:59.009Z,2.43
2018-12-10T09:50:27.600Z,2.40
2018-12-10T09:52:56.282Z,3.00
2018-12-10T09:55:25.099Z,2.20
2018-12-10T09:57:53.771Z,2.07
2018-12-10T10:00:22.343Z,2.07
2018-12-10T10:02:51.706Z,2.20
2018-12-10T10:05:20.587Z,2.40
2018-12-10T10:07:50.258Z,1.90
2018-12-10T10:10:19.343Z,2.52
2018-12-10T10:12:48.160Z,2.53
2018-12-10T10:15:16.990Z,2.30
2018-12-10T10:17:46.134Z,1.77
2018-12-10T10:20:15.184Z,1.80
2018-12-10T10:22:44.360Z,1.77
2018-12-10T10:25:13.031Z,1.90
2018-12-10T10:27:44.290Z,1.70
2018-12-10T10:30:22.018Z,1.82
2018-12-10T10:32:50.983Z,1.53
2018-12-10T10:35:20.094Z,1.73
2018-12-10T10:37:48.933Z,1.60
2018-12-10T10:40:17.850Z,1.50
2018-12-10T10:42:47.215Z,1.53
2018-12-10T10:45:16.265Z,1.60
2018-12-10T10:47:45.700Z,1.23
2018-12-10T10:50:14.883Z,1.47
2018-12-10T10:52:43.776Z,1.50
2018-12-10T10:55:12.853Z,1.40
2018-12-10T10:57:41.953Z,1.50
2018-12-10T11:00:17.812Z,1.43
2018-12-10T11:02:52.005Z,1.00
2018-12-10T11:05:20.747Z,1.30
2018-12-10T11:07:49.497Z,1.10
2018-12-10T11:10:18.228Z,1.40
2018-12-10T11:12:47.019Z,1.40
2018-12-10T11:15:15.913Z,1.37
2018-12-10T11:17:45.044Z,1.13
2018-12-10T11:20:13.995Z,1.10
2018-12-10T11:22:43.027Z,1.00
2018-12-10T11:25:12.157Z,1.00
2018-12-10T11:27:41.054Z,1.13
2018-12-10T11:30:10.216Z,1.40
2018-12-10T11:32:39.255Z,1.20
2018-12-10T11:35:08.058Z,0.90
2018-12-10T11:37:36.895Z,1.10
2018-12-10T11:40:05.785Z,1.10
2018-12-10T11:42:34.762Z,1.10
2018-12-10T11:45:03.731Z,1.47
2018-12-10T11:47:32.524Z,1.23
2018-12-10T11:50:01.358Z,1.43
2018-12-10T11:52:30.014Z,1.60
2018-12-10T11:54:59.334Z,1.80
2018-12-10T11:57:28.355Z,1.80
2018-12-10T11:59:57.628Z,1.70
2018-12-10T12:02:29.846Z,1.70
2018-12-10T12:04:57.619Z,1.50
2018-12-10T12:07:27.887Z,1.80
2018-12-10T12:09:56.661Z,1.70
2018-12-10T12:12:25.554Z,1.47
2018-12-10T12:14:54.357Z,1.80
2018-12-10T12:17:23.179Z,1.50
2018-12-10T12:19:52.019Z,1.90
2018-12-10T12:22:20.908Z,2.10
2018-12-10T12:24:49.928Z,2.13
2018-12-10T12:27:18.783Z,2.10
2018-12-10T12:29:49.057Z,1.90
2018-12-10T12:32:17.973Z,2.10
2018-12-10T12:34:46.631Z,1.87
2018-12-10T12:37:15.394Z,2.30
2018-12-10T12:39:44.177Z,2.20
2018-12-10T12:42:16.012Z,2.67
2018-12-10T12:44:44.706Z,1.80
2018-12-10T12:47:13.354Z,2.10
2018-12-10T12:49:42.137Z,1.70
2018-12-10T12:52:10.791Z,2.00
2018-12-10T12:54:39.549Z,1.80
2018-12-10T12:57:08.433Z,1.70
2018-12-10T12:59:37.290Z,1.60
2018-12-10T13:02:06.303Z,1.30
2018-12-10T13:04:35.627Z,1.27
2018-12-10T13:07:04.882Z,1.90
2018-12-10T13:09:33.995Z,1.30
2018-12-10T13:12:02.902Z,1.30
2018-12-10T13:14:32.298Z,1.27
2018-12-10T13:17:01.043Z,1.77
2018-12-10T13:19:29.863Z,1.60
2018-12-10T13:21:58.803Z,1.30
2018-12-10T13:24:27.765Z,1.60
2018-12-10T13:26:56.576Z,1.60
2018-12-10T13:29:31.264Z,1.80
2018-12-10T13:31:56.454Z,1.80
2018-12-10T13:34:24.934Z,1.83
2018-12-10T13:36:53.600Z,2.20
2018-12-10T13:39:22.140Z,2.10
2018-12-10T13:41:50.792Z,2.30
2018-12-10T13:44:19.405Z,2.07
2018-12-10T13:46:48.410Z,2.13
2018-12-10T13:49:17.147Z,1.90
2018-12-10T13:51:45.747Z,2.13
2018-12-10T13:54:14.568Z,2.23
2018-12-10T13:56:43.085Z,2.53
2018-12-10T13:59:11.637Z,2.40
2018-12-10T14:01:40.242Z,2.17
2018-12-10T14:04:13.913Z,2.30
2018-12-10T14:06:42.454Z,2.60
2018-12-10T14:09:10.970Z,2.40
2018-12-10T14:11:40.533Z,2.80
2018-12-10T14:14:09.142Z,2.80
2018-12-10T14:16:37.830Z,2.40
2018-12-10T14:19:06.388Z,2.57
2018-12-10T14:21:34.937Z,3.00
2018-12-10T14:24:03.591Z,2.73
2018-12-10T14:26:32.184Z,2.80
2018-12-10T14:29:00.686Z,2.67
2018-12-10T14:31:29.241Z,2.77
2018-12-10T14:34:02.003Z,3.17
2018-12-10T14:36:30.600Z,3.40
2018-12-10T14:38:59.147Z,3.10
2018-12-10T14:41:27.773Z,3.00
2018-12-10T14:43:56.329Z,3.62
2018-12-10T14:46:24.863Z,3.70
2018-12-10T14:48:53.472Z,3.27
2018-12-10T14:51:22.311Z,3.07
2018-12-10T14:53:50.898Z,3.10
2018-12-10T14:56:19.506Z,3.53
2018-12-10T14:58:48.075Z,3.80
2018-12-10T15:01:16.791Z,2.97
2018-12-10T15:03:45.537Z,3.03
2018-12-10T15:06:14.120Z,2.20
2018-12-10T15:08:42.705Z,2.17
2018-12-10T15:11:11.341Z,2.57
2018-12-10T15:13:39.897Z,2.80
2018-12-10T15:16:08.595Z,2.30
2018-12-10T15:18:37.170Z,1.70
2018-12-10T15:21:05.797Z,2.00
2018-12-10T15:23:34.355Z,2.30
2018-12-10T15:26:02.943Z,2.07
2018-12-10T15:28:31.504Z,2.30
2018-12-10T15:31:00.071Z,1.63
2018-12-10T15:33:28.676Z,1.60
2018-12-10T15:35:57.290Z,1.23
2018-12-10T15:38:26.146Z,1.13
2018-12-10T15:40:54.780Z,1.00
2018-12-10T15:43:24.199Z,0.97
2018-12-10T15:45:52.784Z,1.00
2018-12-10T15:48:21.718Z,0.83
2018-12-10T15:50:50.287Z,0.70
2018-12-10T15:53:18.856Z,1.00
2018-12-10T15:55:47.687Z,1.60
2018-12-10T15:58:16.674Z,1.40
2018-12-10T16:00:45.250Z,1.00
2018-12-10T16:03:13.850Z,1.17
2018-12-10T16:05:42.472Z,1.00
2018-12-10T16:08:10.957Z,1.20
2018-12-10T16:10:39.495Z,1.20
2018-12-10T16:13:08.055Z,1.30
2018-12-10T16:15:36.807Z,1.57
2018-12-10T16:18:05.295Z,1.30
2018-12-10T16:20:33.847Z,1.50
2018-12-10T16:23:02.485Z,1.33
2018-12-10T16:25:31.072Z,1.80
2018-12-10T16:27:59.737Z,2.17
2018-12-10T16:30:28.984Z,2.27
2018-12-10T16:32:57.719Z,2.10
2018-12-10T16:35:26.498Z,2.20
2018-12-10T16:37:55.111Z,2.50
2018-12-10T16:40:23.622Z,2.50
2018-12-10T16:42:52.127Z,2.50
2018-12-10T16:45:21.050Z,2.83
2018-12-10T16:47:49.697Z,2.83
2018-12-10T16:50:18.351Z,2.53
2018-12-10T16:52:47.155Z,2.57
2018-12-10T16:55:16.198Z,3.67
2018-12-10T16:57:44.759Z,3.12
2018-12-10T17:00:14.239Z,2.60
2018-12-10T17:02:42.779Z,3.00
2018-12-10T17:05:11.372Z,3.08
2018-12-10T17:07:39.856Z,2.77
2018-12-10T17:10:10.141Z,3.00
2018-12-10T17:12:38.747Z,2.90
2018-12-10T17:15:08.095Z,3.33
2018-12-10T17:17:36.771Z,3.20
2018-12-10T17:20:06.131Z,2.80
2018-12-10T17:22:34.904Z,2.30
2018-12-10T17:25:03.715Z,3.30
2018-12-10T17:27:32.473Z,2.90
2018-12-10T17:30:01.065Z,3.13
2018-12-10T17:32:29.630Z,3.07
2018-12-10T17:34:58.205Z,3.03
2018-12-10T17:37:26.759Z,3.43
2018-12-10T17:39:55.314Z,3.27
2018-12-10T17:42:23.871Z,3.30
2018-12-10T17:44:52.408Z,3.10
2018-12-10T17:47:21.042Z,2.97
2018-12-10T17:49:50.186Z,3.20
2018-12-10T17:52:18.790Z,3.17
2018-12-10T17:54:47.435Z,2.97
2018-12-10T17:57:16.174Z,3.23
2018-12-10T17:59:44.808Z,3.20
2018-12-10T18:02:13.403Z,3.27
2018-12-10T18:04:41.964Z,2.97
2018-12-10T18:07:10.598Z,5.03
2018-12-10T18:09:39.186Z,2.70
2018-12-10T18:12:07.727Z,3.17
2018-12-10T18:14:36.461Z,3.87
2018-12-10T18:17:05.155Z,3.47
2018-12-10T18:19:33.671Z,3.17
2018-12-10T18:22:02.249Z,3.23
2018-12-10T18:24:30.784Z,3.30
2018-12-10T18:26:59.349Z,2.93
2018-12-10T18:29:28.591Z,2.93
2018-12-10T18:31:57.106Z,2.50
2018-12-10T18:34:25.667Z,3.53
2018-12-10T18:36:54.217Z,3.17
2018-12-10T18:39:23.879Z,2.87
2018-12-10T18:41:52.526Z,2.90
2018-12-10T18:44:21.196Z,2.47
2018-12-10T18:46:49.706Z,2.93
2018-12-10T18:49:18.314Z,2.60
2018-12-10T18:51:46.906Z,3.00
2018-12-10T18:54:15.447Z,2.47
2018-12-10T18:56:44.212Z,2.70
2018-12-10T18:59:12.742Z,2.40
2018-12-10T19:01:41.321Z,2.57
2018-12-10T19:04:09.859Z,2.53
2018-12-10T19:06:38.455Z,2.70
2018-12-10T19:09:07.879Z,2.07
2018-12-10T19:11:36.684Z,2.57
2018-12-10T19:14:05.345Z,2.47
2018-12-10T19:16:33.914Z,2.60
2018-12-10T19:19:02.594Z,2.40
2018-12-10T19:21:31.290Z,2.60
2018-12-10T19:23:59.922Z,2.83
2018-12-10T19:26:28.490Z,3.77
2018-12-10T19:28:57.072Z,2.93
2018-12-10T19:31:25.672Z,2.43
2018-12-10T19:34:13.842Z,3.77
2018-12-10T19:36:44.811Z,4.03
2018-12-10T19:39:14.632Z,3.20
2018-12-10T19:41:44.577Z,2.67
2018-12-10T19:44:13.879Z,3.23
2018-12-10T19:46:42.993Z,3.40
2018-12-10T19:49:13.559Z,3.07
2018-12-10T19:51:42.955Z,2.93
2018-12-10T19:54:11.615Z,3.90
2018-12-10T19:56:41.159Z,2.90
2018-12-10T19:59:10.276Z,3.00
2018-12-10T20:01:39.194Z,3.20
2018-12-10T20:04:08.220Z,3.63
2018-12-10T20:06:41.323Z,3.00
2018-12-10T20:09:09.961Z,3.03
2018-12-10T20:11:38.727Z,2.60
2018-12-10T20:14:07.540Z,3.10
2018-12-10T20:16:36.783Z,3.00
2018-12-10T20:19:05.768Z,3.43
2018-12-10T20:21:34.642Z,3.37
2018-12-10T20:24:03.652Z,3.33
2018-12-10T20:26:32.756Z,3.37
2018-12-10T20:29:01.623Z,2.93
2018-12-10T20:31:30.627Z,4.33
2018-12-10T20:33:59.482Z,3.20
2018-12-10T20:36:29.470Z,3.13
2018-12-10T20:38:58.406Z,3.50
2018-12-10T20:41:27.489Z,3.57
2018-12-10T20:43:56.455Z,3.37
2018-12-10T20:46:25.515Z,2.70
2018-12-10T20:48:54.584Z,3.20
2018-12-10T20:51:23.548Z,3.50
2018-12-10T20:53:52.757Z,2.90
2018-12-10T20:56:21.600Z,2.77
2018-12-10T20:58:50.795Z,2.70
2018-12-10T21:01:19.688Z,3.03
2018-12-10T21:03:48.573Z,2.90
2018-12-10T21:06:22.567Z,2.83
2018-12-10T21:08:58.273Z,3.57
2018-12-10T21:11:27.094Z,3.37
2018-12-10T21:13:56.088Z,2.93
2018-12-10T21:16:25.185Z,2.77
2018-12-10T21:18:54.224Z,2.57
2018-12-10T21:21:23.433Z,3.10
2018-12-10T21:23:53.057Z,3.03
2018-12-10T21:26:35.234Z,3.07
2018-12-10T21:29:04.120Z,2.97
2018-12-10T21:31:33.107Z,3.20
2018-12-10T21:34:02.090Z,3.10
2018-12-10T21:36:30.916Z,3.00
2018-12-10T21:38:59.882Z,2.57
2018-12-10T21:47:34.684Z,2.47
2018-12-10T21:50:07.922Z,2.80
2018-12-10T21:52:36.555Z,2.60
2018-12-10T21:55:05.624Z,2.43
2018-12-10T21:57:35.842Z,2.80
2018-12-10T22:00:17.525Z,2.53
2018-12-10T22:02:48.139Z,2.77
2018-12-10T22:05:17.083Z,2.53
2018-12-10T22:07:45.892Z,2.90
2018-12-10T22:10:14.618Z,2.63
2018-12-10T22:12:43.403Z,2.70
2018-12-10T22:27:14.715Z,2.90
2018-12-10T22:29:43.499Z,2.67
2018-12-10T22:32:12.540Z,2.40
2018-12-10T22:34:41.218Z,2.43
2018-12-10T22:37:10.010Z,2.90
2018-12-10T22:45:37.449Z,2.53
2018-12-10T22:48:06.698Z,3.17
2018-12-10T22:50:35.339Z,2.30
2018-12-10T22:53:05.857Z,2.60
2018-12-10T22:55:34.564Z,2.90
2018-12-10T22:58:03.266Z,2.37
2018-12-10T23:00:37.349Z,1.93
2018-12-10T23:03:06.056Z,2.10
2018-12-10T23:05:34.807Z,2.10
2018-12-10T23:08:03.875Z,1.90
2018-12-10T23:10:32.727Z,2.33
2018-12-10T23:13:01.443Z,2.47
2018-12-10T23:15:30.463Z,2.07
2018-12-10T23:17:59.162Z,2.27
2018-12-10T23:20:27.835Z,2.20
2018-12-10T23:22:56.606Z,2.13
2018-12-10T23:25:25.394Z,2.07
2018-12-10T23:27:54.153Z,2.13
2018-12-10T23:30:23.044Z,2.53
2018-12-10T23:32:51.909Z,2.77
2018-12-10T23:35:22.435Z,2.17
2018-12-10T23:37:51.410Z,1.90
2018-12-10T23:40:20.626Z,2.43
2018-12-10T23:42:54.965Z,2.00
2018-12-10T23:45:24.160Z,1.77
2018-12-10T23:47:53.270Z,2.07
2018-12-10T23:50:22.159Z,2.10
2018-12-10T23:52:51.036Z,2.17
2018-12-10T23:55:20.024Z,1.83
2018-12-10T23:57:48.987Z,2.53
